createdAt,value
2023-02-04T00:03:32.330Z,4.60
2023-02-04T00:09:25.304Z,4.60
2023-02-04T00:15:18.265Z,4.60
2023-02-04T00:21:13.043Z,4.60
2023-02-04T00:27:06.884Z,4.60
2023-02-04T00:33:00.324Z,4.70
2023-02-04T00:38:54.697Z,4.80
2023-02-04T00:44:47.747Z,4.70
2023-02-04T00:50:40.712Z,4.70
2023-02-04T00:56:35.413Z,4.60
2023-02-04T01:02:28.959Z,4.60
2023-02-04T01:08:22.825Z,4.60
2023-02-04T01:14:17.715Z,4.70
2023-02-04T01:20:12.350Z,4.50
2023-02-04T01:26:05.814Z,4.40
2023-02-04T01:32:00.675Z,4.50
2023-02-04T01:37:54.212Z,4.50
2023-02-04T01:43:48.020Z,4.70
2023-02-04T01:49:42.583Z,5.10
2023-02-04T01:55:35.679Z,5.00
2023-02-04T02:01:38.207Z,4.80
2023-02-04T02:07:32.697Z,4.70
2023-02-04T02:13:25.731Z,4.60
2023-02-04T02:19:27.531Z,4.70
2023-02-04T02:25:21.990Z,4.70
2023-02-04T02:31:16.211Z,4.90
2023-02-04T02:37:10.328Z,4.70
2023-02-04T02:43:04.923Z,4.60
2023-02-04T02:48:58.464Z,4.60
2023-02-04T02:54:51.586Z,4.80
2023-02-04T03:00:46.546Z,4.80
2023-02-04T03:06:41.382Z,4.70
2023-02-04T03:12:34.746Z,4.60
2023-02-04T03:18:29.621Z,4.40
2023-02-04T03:24:23.215Z,4.50
2023-02-04T03:30:17.097Z,4.40
2023-02-04T03:36:12.180Z,4.60
2023-02-04T03:42:05.603Z,4.40
2023-02-04T03:47:59.000Z,4.60
2023-02-04T03:53:53.740Z,4.70
2023-02-04T03:59:46.755Z,4.50
2023-02-04T04:05:40.239Z,4.20
2023-02-04T04:11:35.023Z,4.20
2023-02-04T04:17:28.011Z,4.20
2023-02-04T04:23:21.488Z,4.00
2023-02-04T04:29:16.239Z,4.20
2023-02-04T04:35:09.774Z,4.30
2023-02-04T04:41:03.347Z,4.40
2023-02-04T04:46:58.125Z,4.40
2023-02-04T04:52:51.546Z,4.30
2023-02-04T04:58:44.961Z,4.30
2023-02-04T05:04:39.741Z,4.20
2023-02-04T05:10:33.456Z,3.50
2023-02-04T05:16:26.731Z,3.60
2023-02-04T05:22:21.559Z,3.80
2023-02-04T05:28:15.049Z,3.60
2023-02-04T05:34:08.489Z,3.60
2023-02-04T05:40:04.030Z,3.50
2023-02-04T05:45:58.248Z,3.50
2023-02-04T05:51:51.724Z,3.20
2023-02-04T05:57:46.055Z,3.30
2023-02-04T06:03:39.580Z,3.50
2023-02-04T06:09:32.627Z,3.70
2023-02-04T06:15:27.070Z,3.60
2023-02-04T06:21:20.488Z,3.30
2023-02-04T06:27:13.432Z,3.40
2023-02-04T06:33:07.739Z,3.30
2023-02-04T06:39:00.838Z,3.10
2023-02-04T06:44:53.926Z,3.30
2023-02-04T06:50:49.322Z,3.40
2023-02-04T06:56:43.558Z,3.20
2023-02-04T07:02:37.647Z,3.20
2023-02-04T07:08:32.422Z,3.20
2023-02-04T07:14:26.445Z,3.10
2023-02-04T07:20:20.168Z,3.20
2023-02-04T07:26:14.888Z,3.30
2023-02-04T07:32:07.881Z,3.20
2023-02-04T07:38:00.905Z,3.10
2023-02-04T07:43:55.624Z,3.10
2023-02-04T07:49:49.003Z,3.10
2023-02-04T07:55:42.775Z,3.20
2023-02-04T08:01:37.545Z,3.20
2023-02-04T08:07:31.186Z,3.40
2023-02-04T08:13:25.412Z,3.10
2023-02-04T08:19:21.407Z,3.40
2023-02-04T08:25:15.077Z,3.40
2023-02-04T08:31:11.739Z,3.40
2023-02-04T08:37:06.261Z,3.60
2023-02-04T08:42:59.775Z,3.80
2023-02-04T08:48:53.447Z,4.00
2023-02-04T08:54:47.731Z,4.10
2023-02-04T09:00:41.282Z,4.40
2023-02-04T09:06:34.756Z,4.50
2023-02-04T09:12:29.255Z,4.70
2023-02-04T09:18:23.354Z,4.80
2023-02-04T09:24:16.817Z,5.10
2023-02-04T09:30:13.044Z,5.40
2023-02-04T09:36:08.209Z,5.60
2023-02-04T09:42:02.278Z,5.90
2023-02-04T09:47:59.324Z,6.20
2023-02-04T09:53:54.471Z,6.60
2023-02-04T09:59:48.121Z,7.00
2023-02-04T10:05:43.096Z,7.60
2023-02-04T10:11:39.997Z,8.20
2023-02-04T10:17:33.109Z,8.80
2023-02-04T10:23:27.951Z,8.90
2023-02-04T10:29:23.833Z,9.20
2023-02-04T10:35:19.491Z,8.90
2023-02-04T10:41:16.014Z,9.40
2023-02-04T10:47:17.732Z,9.80
2023-02-04T10:53:30.210Z,10.00
2023-02-04T10:59:27.219Z,10.00
2023-02-04T11:05:21.784Z,10.20
2023-02-04T11:11:18.107Z,10.00
2023-02-04T11:17:22.258Z,10.40
2023-02-04T11:23:32.636Z,10.10
2023-02-04T11:29:35.226Z,10.20
2023-02-04T11:35:31.503Z,9.70
2023-02-04T11:41:29.113Z,9.40
2023-02-04T11:47:26.025Z,9.10
2023-02-04T11:53:20.330Z,9.10
2023-02-04T11:59:15.729Z,9.60
2023-02-04T12:05:12.690Z,9.70
2023-02-04T12:11:11.629Z,9.80
2023-02-04T12:17:17.016Z,9.40
2023-02-04T12:23:10.444Z,9.40
2023-02-04T12:29:06.047Z,9.20
2023-02-04T12:34:59.048Z,9.20
2023-02-04T12:40:52.075Z,9.60
2023-02-04T12:46:46.890Z,10.30
2023-02-04T12:52:40.470Z,10.70
2023-02-04T12:58:33.861Z,11.20
2023-02-04T13:04:28.579Z,11.40
2023-02-04T13:10:24.328Z,11.70
2023-02-04T13:16:19.725Z,11.70
2023-02-04T13:22:14.637Z,11.40
2023-02-04T13:28:08.084Z,11.60
2023-02-04T13:34:01.533Z,11.60
2023-02-04T13:39:55.886Z,11.60
2023-02-04T13:45:49.101Z,11.40
2023-02-04T13:51:42.700Z,10.80
2023-02-04T13:57:38.145Z,10.50
2023-02-04T14:03:31.948Z,10.10
2023-02-04T14:09:25.800Z,10.10
2023-02-04T14:15:20.179Z,9.90
2023-02-04T14:21:13.575Z,9.70
2023-02-04T14:27:08.138Z,9.60
2023-02-04T14:33:02.936Z,9.40
2023-02-04T14:38:56.326Z,9.10
2023-02-04T14:44:49.686Z,8.90
2023-02-04T14:50:44.393Z,8.70
2023-02-04T14:56:37.806Z,8.60
2023-02-04T15:02:30.837Z,8.40
2023-02-04T15:08:25.574Z,8.20
2023-02-04T15:14:19.415Z,8.10
2023-02-04T15:20:13.326Z,7.90
2023-02-04T15:26:08.221Z,7.80
2023-02-04T15:32:01.237Z,7.50
2023-02-04T15:37:54.686Z,7.50
2023-02-04T15:43:49.492Z,7.30
2023-02-04T15:49:42.472Z,7.10
2023-02-04T15:55:35.698Z,7.00
2023-02-04T16:01:30.084Z,6.90
2023-02-04T16:07:23.552Z,7.00
2023-02-04T16:13:17.066Z,6.80
2023-02-04T16:19:11.857Z,6.80
2023-02-04T16:25:05.244Z,6.30
2023-02-04T16:30:58.824Z,6.50
2023-02-04T16:36:53.561Z,6.50
2023-02-04T16:42:46.828Z,6.50
2023-02-04T16:48:39.854Z,6.50
2023-02-04T16:54:35.498Z,6.50
2023-02-04T17:00:28.718Z,6.50
2023-02-04T17:06:22.209Z,6.40
2023-02-04T17:12:17.108Z,6.30
2023-02-04T17:18:10.704Z,6.30
2023-02-04T17:24:04.583Z,6.30
2023-02-04T17:29:59.470Z,6.20
2023-02-04T17:35:53.325Z,6.10
2023-02-04T17:41:48.385Z,6.00
2023-02-04T17:47:44.080Z,5.90
2023-02-04T17:53:40.821Z,5.90
2023-02-04T17:59:34.746Z,5.80
2023-02-04T18:05:30.683Z,5.90
2023-02-04T18:11:27.789Z,5.80
2023-02-04T18:17:21.360Z,5.80
2023-02-04T18:23:18.311Z,5.70
2023-02-04T18:29:28.843Z,5.70
2023-02-04T18:35:41.486Z,5.60
2023-02-04T18:41:38.576Z,5.50
2023-02-04T18:47:34.082Z,5.50
2023-02-04T18:53:28.907Z,5.40
2023-02-04T18:59:28.606Z,5.30
2023-02-04T19:05:28.187Z,5.30
2023-02-04T19:11:28.479Z,5.20
2023-02-04T19:17:27.415Z,5.20
2023-02-04T19:23:23.482Z,5.30
2023-02-04T19:29:40.344Z,5.10
2023-02-04T19:35:43.107Z,5.20
2023-02-04T19:41:46.135Z,5.10
2023-02-04T19:47:43.925Z,5.20
2023-02-04T19:53:38.627Z,5.20
2023-02-04T19:59:37.596Z,5.10
2023-02-04T20:05:34.312Z,5.00
2023-02-04T20:11:59.090Z,5.20
2023-02-04T20:17:53.638Z,5.00
2023-02-04T20:23:46.663Z,4.80
2023-02-04T20:29:41.463Z,4.80
2023-02-04T20:36:27.430Z,4.80
2023-02-04T20:42:46.554Z,4.80
2023-02-04T20:48:42.011Z,4.70
2023-02-04T20:54:35.049Z,4.50
2023-02-04T21:00:34.562Z,4.60
2023-02-04T21:06:33.161Z,4.40
2023-02-04T21:12:29.381Z,4.30
2023-02-04T21:18:22.789Z,4.30
2023-02-04T21:24:17.914Z,4.20
2023-02-04T21:30:12.034Z,4.00
2023-02-04T21:36:06.059Z,4.00
2023-02-04T21:42:11.225Z,3.90
2023-02-04T21:48:05.518Z,4.00
2023-02-04T21:54:00.337Z,3.90
2023-02-04T21:59:54.699Z,4.00
2023-02-04T22:05:48.122Z,4.00
2023-02-04T22:11:41.200Z,3.90
2023-02-04T22:17:35.914Z,3.90
2023-02-04T22:23:29.437Z,3.80
2023-02-04T22:29:25.373Z,3.60
2023-02-04T22:35:19.866Z,3.50
2023-02-04T22:41:13.255Z,3.50
2023-02-04T22:47:06.640Z,3.60
2023-02-04T22:53:00.974Z,3.60
2023-02-04T22:58:54.329Z,3.50
2023-02-04T23:04:47.726Z,3.40
2023-02-04T23:10:42.499Z,3.30
2023-02-04T23:16:36.089Z,3.20
2023-02-04T23:22:29.631Z,3.20
2023-02-04T23:28:23.947Z,3.20
2023-02-04T23:34:16.966Z,3.30
2023-02-04T23:40:11.252Z,3.20
2023-02-04T23:46:05.901Z,3.20
2023-02-04T23:51:59.330Z,3.10
2023-02-04T23:57:52.741Z,3.10
